sensor_id;sensor_type;location;lat;lon;timestamp;pressure;altitude;pressure_sealevel;temperature;humidity
69402;BME280;56589;51.992;5.924;2023-05-22T00:00:45;100957.16;;;16.94;77.61
69402;BME280;56589;51.992;5.924;2023-05-22T00:03:11;100957.28;;;16.93;77.62
69402;BME280;56589;51.992;5.924;2023-05-22T00:05:37;100957.41;;;16.91;77.51
69402;BME280;56589;51.992;5.924;2023-05-22T00:08:03;100964.53;;;16.91;77.53
69402;BME280;56589;51.992;5.924;2023-05-22T00:10:32;100970.81;;;16.90;77.59
69402;BME280;56589;51.992;5.924;2023-05-22T00:12:58;100973.47;;;16.90;77.96
69402;BME280;56589;51.992;5.924;2023-05-22T00:15:23;100970.66;;;16.91;77.72
69402;BME280;56589;51.992;5.924;2023-05-22T00:17:49;100973.06;;;16.94;78.05
69402;BME280;56589;51.992;5.924;2023-05-22T00:20:15;100974.59;;;16.97;78.12
69402;BME280;56589;51.992;5.924;2023-05-22T00:22:41;100973.63;;;16.98;77.63
69402;BME280;56589;51.992;5.924;2023-05-22T00:25:09;100984.38;;;16.96;77.61
69402;BME280;56589;51.992;5.924;2023-05-22T00:27:37;100983.69;;;16.94;78.25
69402;BME280;56589;51.992;5.924;2023-05-22T00:30:05;100982.84;;;16.94;77.84
69402;BME280;56589;51.992;5.924;2023-05-22T00:32:32;100972.50;;;16.91;78.06
69402;BME280;56589;51.992;5.924;2023-05-22T00:34:58;100964.09;;;16.86;78.23
69402;BME280;56589;51.992;5.924;2023-05-22T00:37:24;100966.34;;;16.81;77.87
69402;BME280;56589;51.992;5.924;2023-05-22T00:39:49;100963.50;;;16.72;78.24
69402;BME280;56589;51.992;5.924;2023-05-22T00:42:16;100957.84;;;16.66;78.02
69402;BME280;56589;51.992;5.924;2023-05-22T00:44:45;100941.50;;;16.61;78.26
69402;BME280;56589;51.992;5.924;2023-05-22T00:47:11;100940.34;;;16.54;78.37
69402;BME280;56589;51.992;5.924;2023-05-22T00:49:36;100933.31;;;16.43;78.01
69402;BME280;56589;51.992;5.924;2023-05-22T00:52:03;100925.59;;;16.30;78.70
69402;BME280;56589;51.992;5.924;2023-05-22T00:54:30;100921.09;;;16.21;79.18
69402;BME280;56589;51.992;5.924;2023-05-22T00:56:57;100923.44;;;16.14;78.80
69402;BME280;56589;51.992;5.924;2023-05-22T00:59:23;100920.06;;;16.12;79.42
69402;BME280;56589;51.992;5.924;2023-05-22T01:01:52;100914.75;;;16.12;79.74
69402;BME280;56589;51.992;5.924;2023-05-22T01:04:18;100922.59;;;16.14;79.77
69402;BME280;56589;51.992;5.924;2023-05-22T01:06:44;100924.28;;;16.15;79.76
69402;BME280;56589;51.992;5.924;2023-05-22T01:09:10;100918.59;;;16.19;79.82
69402;BME280;56589;51.992;5.924;2023-05-22T01:11:42;100918.31;;;16.23;79.50
69402;BME280;56589;51.992;5.924;2023-05-22T01:14:24;100914.81;;;16.22;79.21
69402;BME280;56589;51.992;5.924;2023-05-22T01:17:08;100911.34;;;16.22;79.21
69402;BME280;56589;51.992;5.924;2023-05-22T01:19:53;100907.16;;;16.19;79.23
69402;BME280;56589;51.992;5.924;2023-05-22T01:22:36;100906.44;;;16.17;79.17
69402;BME280;56589;51.992;5.924;2023-05-22T01:31:40;100908.25;;;16.16;79.59
69402;BME280;56589;51.992;5.924;2023-05-22T01:34:10;100905.59;;;16.16;79.45
69402;BME280;56589;51.992;5.924;2023-05-22T01:36:39;100902.94;;;16.16;79.63
69402;BME280;56589;51.992;5.924;2023-05-22T01:39:10;100903.53;;;16.20;79.86
69402;BME280;56589;51.992;5.924;2023-05-22T01:41:36;100907.56;;;16.24;79.64
69402;BME280;56589;51.992;5.924;2023-05-22T01:44:04;100907.47;;;16.26;79.59
69402;BME280;56589;51.992;5.924;2023-05-22T01:46:30;100905.50;;;16.28;79.70
69402;BME280;56589;51.992;5.924;2023-05-22T01:48:59;100915.72;;;16.32;79.51
69402;BME280;56589;51.992;5.924;2023-05-22T01:51:32;100919.06;;;16.34;79.39
69402;BME280;56589;51.992;5.924;2023-05-22T01:54:09;100914.06;;;16.31;79.12
69402;BME280;56589;51.992;5.924;2023-05-22T01:56:46;100916.94;;;16.28;79.14
69402;BME280;56589;51.992;5.924;2023-05-22T01:59:21;100917.22;;;16.25;79.19
69402;BME280;56589;51.992;5.924;2023-05-22T02:01:51;100917.34;;;16.24;79.08
69402;BME280;56589;51.992;5.924;2023-05-22T02:04:22;100910.38;;;16.23;78.87
69402;BME280;56589;51.992;5.924;2023-05-22T02:06:51;100907.72;;;16.23;79.19
69402;BME280;56589;51.992;5.924;2023-05-22T02:09:20;100915.66;;;16.23;78.62
69402;BME280;56589;51.992;5.924;2023-05-22T02:11:51;100902.69;;;16.19;78.83
69402;BME280;56589;51.992;5.924;2023-05-22T02:14:17;100910.06;;;16.16;78.89
69402;BME280;56589;51.992;5.924;2023-05-22T02:16:43;100906.25;;;16.09;79.23
69402;BME280;56589;51.992;5.924;2023-05-22T02:19:09;100908.19;;;16.07;78.76
69402;BME280;56589;51.992;5.924;2023-05-22T02:21:38;100907.34;;;16.06;79.09
69402;BME280;56589;51.992;5.924;2023-05-22T02:24:04;100909.03;;;16.07;79.10
69402;BME280;56589;51.992;5.924;2023-05-22T02:26:30;100907.22;;;16.08;79.01
69402;BME280;56589;51.992;5.924;2023-05-22T02:28:56;100896.34;;;16.11;79.20
69402;BME280;56589;51.992;5.924;2023-05-22T02:31:22;100898.16;;;16.10;78.85
69402;BME280;56589;51.992;5.924;2023-05-22T02:33:48;100893.00;;;16.09;78.88
69402;BME280;56589;51.992;5.924;2023-05-22T02:36:14;100880.00;;;16.06;79.22
69402;BME280;56589;51.992;5.924;2023-05-22T02:38:42;100884.47;;;16.05;79.28
69402;BME280;56589;51.992;5.924;2023-05-22T02:41:08;100888.38;;;16.01;79.01
69402;BME280;56589;51.992;5.924;2023-05-22T02:43:34;100879.69;;;15.99;79.37
69402;BME280;56589;51.992;5.924;2023-05-22T02:46:00;100876.63;;;15.94;79.41
69402;BME280;56589;51.992;5.924;2023-05-22T02:48:25;100882.44;;;15.88;79.14
69402;BME280;56589;51.992;5.924;2023-05-22T02:50:51;100875.59;;;15.85;79.15
69402;BME280;56589;51.992;5.924;2023-05-22T02:53:17;100868.63;;;15.84;79.06
69402;BME280;56589;51.992;5.924;2023-05-22T02:55:45;100869.84;;;15.80;79.63
69402;BME280;56589;51.992;5.924;2023-05-22T02:58:11;100862.16;;;15.77;79.60
69402;BME280;56589;51.992;5.924;2023-05-22T03:00:37;100871.31;;;15.73;79.77
69402;BME280;56589;51.992;5.924;2023-05-22T03:03:03;100867.84;;;15.73;79.46
69402;BME280;56589;51.992;5.924;2023-05-22T03:05:29;100870.63;;;15.71;79.80
69402;BME280;56589;51.992;5.924;2023-05-22T03:07:55;100862.78;;;15.70;79.42
69402;BME280;56589;51.992;5.924;2023-05-22T03:10:21;100872.66;;;15.67;79.86
69402;BME280;56589;51.992;5.924;2023-05-22T03:12:50;100864.00;;;15.65;79.76
69402;BME280;56589;51.992;5.924;2023-05-22T03:15:16;100867.63;;;15.64;79.75
69402;BME280;56589;51.992;5.924;2023-05-22T03:17:42;100863.31;;;15.63;79.64
69402;BME280;56589;51.992;5.924;2023-05-22T03:20:08;100866.78;;;15.64;80.00
69402;BME280;56589;51.992;5.924;2023-05-22T03:22:35;100867.63;;;15.64;79.98
69402;BME280;56589;51.992;5.924;2023-05-22T03:25:05;100864.00;;;15.65;79.58
69402;BME280;56589;51.992;5.924;2023-05-22T03:27:32;100864.84;;;15.66;79.51
69402;BME280;56589;51.992;5.924;2023-05-22T03:30:00;100866.66;;;15.65;79.71
69402;BME280;56589;51.992;5.924;2023-05-22T03:32:26;100861.59;;;15.62;79.40
69402;BME280;56589;51.992;5.924;2023-05-22T03:34:52;100860.78;;;15.62;79.43
69402;BME280;56589;51.992;5.924;2023-05-22T03:37:18;100861.88;;;15.59;79.84
69402;BME280;56589;51.992;5.924;2023-05-22T03:39:43;100856.59;;;15.59;79.78
69402;BME280;56589;51.992;5.924;2023-05-22T03:42:09;100853.09;;;15.59;79.60
69402;BME280;56589;51.992;5.924;2023-05-22T03:44:35;100863.56;;;15.60;79.78
69402;BME280;56589;51.992;5.924;2023-05-22T03:47:04;100859.09;;;15.61;79.79
69402;BME280;56589;51.992;5.924;2023-05-22T03:49:32;100856.59;;;15.59;79.54
69402;BME280;56589;51.992;5.924;2023-05-22T03:51:58;100855.88;;;15.57;79.42
69402;BME280;56589;51.992;5.924;2023-05-22T03:54:23;100855.16;;;15.55;79.44
69402;BME280;56589;51.992;5.924;2023-05-22T03:56:49;100854.44;;;15.53;79.34
69402;BME280;56589;51.992;5.924;2023-05-22T03:59:15;100855.53;;;15.51;79.44
69402;BME280;56589;51.992;5.924;2023-05-22T04:01:41;100863.59;;;15.49;79.56
69402;BME280;56589;51.992;5.924;2023-05-22T04:04:09;100863.75;;;15.48;80.09
69402;BME280;56589;51.992;5.924;2023-05-22T04:06:35;100864.84;;;15.45;79.67
69402;BME280;56589;51.992;5.924;2023-05-22T04:09:01;100864.84;;;15.45;80.05
69402;BME280;56589;51.992;5.924;2023-05-22T04:11:27;100862.91;;;15.47;79.80
69402;BME280;56589;51.992;5.924;2023-05-22T04:13:52;100864.84;;;15.45;79.79
69402;BME280;56589;51.992;5.924;2023-05-22T04:16:18;100864.94;;;15.44;80.05
69402;BME280;56589;51.992;5.924;2023-05-22T04:18:44;100863.88;;;15.46;79.56
69402;BME280;56589;51.992;5.924;2023-05-22T04:21:12;100863.03;;;15.46;79.77
69402;BME280;56589;51.992;5.924;2023-05-22T04:23:38;100865.41;;;15.49;80.04
69402;BME280;56589;51.992;5.924;2023-05-22T04:26:05;100853.84;;;15.50;79.71
69402;BME280;56589;51.992;5.924;2023-05-22T04:28:31;100869.88;;;15.48;79.06
69402;BME280;56589;51.992;5.924;2023-05-22T04:30:56;100867.72;;;15.42;79.34
69402;BME280;56589;51.992;5.924;2023-05-22T04:33:22;100869.53;;;15.42;79.66
69402;BME280;56589;51.992;5.924;2023-05-22T04:35:48;100872.78;;;15.45;80.01
69402;BME280;56589;51.992;5.924;2023-05-22T04:38:16;100864.34;;;15.51;79.59
69402;BME280;56589;51.992;5.924;2023-05-22T04:40:42;100868.16;;;15.58;79.82
69402;BME280;56589;51.992;5.924;2023-05-22T04:43:08;100868.00;;;15.60;79.47
69402;BME280;56589;51.992;5.924;2023-05-22T04:45:34;100866.34;;;15.59;79.49
69402;BME280;56589;51.992;5.924;2023-05-22T04:48:00;100865.34;;;15.60;79.61
69402;BME280;56589;51.992;5.924;2023-05-22T04:50:26;100862.44;;;15.63;79.53
69402;BME280;56589;51.992;5.924;2023-05-22T04:52:52;100862.19;;;15.66;80.05
69402;BME280;56589;51.992;5.924;2023-05-22T04:55:20;100864.38;;;15.72;80.02
69402;BME280;56589;51.992;5.924;2023-05-22T04:57:46;100869.84;;;15.80;79.79
69402;BME280;56589;51.992;5.924;2023-05-22T05:00:13;100870.16;;;15.87;79.60
69402;BME280;56589;51.992;5.924;2023-05-22T05:02:39;100869.63;;;15.93;79.76
69402;BME280;56589;51.992;5.924;2023-05-22T05:05:05;100866.38;;;16.10;80.22
69402;BME280;56589;51.992;5.924;2023-05-22T05:07:31;100871.44;;;16.44;80.53
69402;BME280;56589;51.992;5.924;2023-05-22T05:10:01;100877.72;;;16.93;80.20
69402;BME280;56589;51.992;5.924;2023-05-22T05:12:30;100880.13;;;17.44;79.72
69402;BME280;56589;51.992;5.924;2023-05-22T05:14:55;100890.16;;;17.89;78.94
69402;BME280;56589;51.992;5.924;2023-05-22T05:17:21;100895.06;;;18.31;77.31
69402;BME280;56589;51.992;5.924;2023-05-22T05:19:47;100893.31;;;18.59;75.78
69402;BME280;56589;51.992;5.924;2023-05-22T05:22:13;100891.66;;;18.76;74.41
69402;BME280;56589;51.992;5.924;2023-05-22T05:24:38;100896.28;;;19.01;73.74
69402;BME280;56589;51.992;5.924;2023-05-22T05:27:04;100899.81;;;19.20;71.94
69402;BME280;56589;51.992;5.924;2023-05-22T05:29:33;100894.50;;;19.20;70.62
69402;BME280;56589;51.992;5.924;2023-05-22T05:31:59;100897.97;;;19.20;70.85
69402;BME280;56589;51.992;5.924;2023-05-22T05:34:24;100897.66;;;19.23;69.64
69402;BME280;56589;51.992;5.924;2023-05-22T05:36:50;100889.53;;;19.25;69.79
69402;BME280;56589;51.992;5.924;2023-05-22T05:39:16;100898.31;;;19.53;70.53
69402;BME280;56589;51.992;5.924;2023-05-22T05:41:42;100898.50;;;19.77;67.90
69402;BME280;56589;51.992;5.924;2023-05-22T05:44:08;100894.25;;;19.49;66.93
69402;BME280;56589;51.992;5.924;2023-05-22T05:46:36;100897.28;;;19.18;67.68
69402;BME280;56589;51.992;5.924;2023-05-22T05:49:05;100897.50;;;19.07;67.80
69402;BME280;56589;51.992;5.924;2023-05-22T05:51:31;100901.75;;;19.00;67.27
69402;BME280;56589;51.992;5.924;2023-05-22T05:53:57;100909.06;;;18.98;67.90
69402;BME280;56589;51.992;5.924;2023-05-22T05:56:23;100911.22;;;18.84;66.85
69402;BME280;56589;51.992;5.924;2023-05-22T05:58:49;100909.69;;;18.54;67.72
69402;BME280;56589;51.992;5.924;2023-05-22T06:01:15;100907.94;;;18.36;68.55
69402;BME280;56589;51.992;5.924;2023-05-22T06:03:43;100905.13;;;18.37;69.43
69402;BME280;56589;51.992;5.924;2023-05-22T06:06:09;100910.50;;;18.55;69.69
69402;BME280;56589;51.992;5.924;2023-05-22T06:08:35;100915.00;;;18.82;70.01
69402;BME280;56589;51.992;5.924;2023-05-22T06:11:01;100916.91;;;19.17;68.90
69402;BME280;56589;51.992;5.924;2023-05-22T06:13:26;100921.47;;;19.43;67.94
69402;BME280;56589;51.992;5.924;2023-05-22T06:15:52;100909.34;;;19.58;68.18
69402;BME280;56589;51.992;5.924;2023-05-22T06:18:18;100911.81;;;19.77;67.36
69402;BME280;56589;51.992;5.924;2023-05-22T06:20:47;100915.78;;;19.99;67.25
69402;BME280;56589;51.992;5.924;2023-05-22T06:23:12;100917.19;;;20.29;66.54
69402;BME280;56589;51.992;5.924;2023-05-22T06:25:38;100927.63;;;20.49;65.51
69402;BME280;56589;51.992;5.924;2023-05-22T06:28:04;100925.19;;;20.63;65.95
69402;BME280;56589;51.992;5.924;2023-05-22T06:30:30;100919.59;;;20.91;66.18
69402;BME280;56589;51.992;5.924;2023-05-22T06:32:56;100927.09;;;21.38;66.00
69402;BME280;56589;51.992;5.924;2023-05-22T06:35:22;100924.63;;;21.93;64.47
69402;BME280;56589;51.992;5.924;2023-05-22T06:37:50;100927.19;;;22.42;63.73
69402;BME280;56589;51.992;5.924;2023-05-22T06:40:16;100933.25;;;22.83;62.45
69402;BME280;56589;51.992;5.924;2023-05-22T06:42:42;100942.06;;;23.23;61.72
69402;BME280;56589;51.992;5.924;2023-05-22T06:45:09;100943.91;;;23.54;60.28
69402;BME280;56589;51.992;5.924;2023-05-22T06:47:35;100937.81;;;23.83;59.77
69402;BME280;56589;51.992;5.924;2023-05-22T06:50:01;100943.63;;;24.09;59.29
69402;BME280;56589;51.992;5.924;2023-05-22T06:52:27;100939.94;;;24.40;58.45
69402;BME280;56589;51.992;5.924;2023-05-22T06:54:55;100941.69;;;24.62;57.41
69402;BME280;56589;51.992;5.924;2023-05-22T06:57:21;100947.34;;;24.97;56.52
69402;BME280;56589;51.992;5.924;2023-05-22T06:59:47;100950.81;;;25.12;54.92
69402;BME280;56589;51.992;5.924;2023-05-22T07:02:12;100951.41;;;25.29;54.75
69402;BME280;56589;51.992;5.924;2023-05-22T07:04:38;100946.84;;;25.44;54.26
69402;BME280;56589;51.992;5.924;2023-05-22T07:07:04;100954.03;;;25.59;53.51
69402;BME280;56589;51.992;5.924;2023-05-22T07:09:30;100956.88;;;25.57;52.55
69402;BME280;56589;51.992;5.924;2023-05-22T07:12:00;100941.91;;;25.48;53.22
69402;BME280;56589;51.992;5.924;2023-05-22T07:14:26;100954.75;;;25.74;53.44
69402;BME280;56589;51.992;5.924;2023-05-22T07:16:52;100948.38;;;26.03;52.79
69402;BME280;56589;51.992;5.924;2023-05-22T07:19:18;100942.09;;;26.17;52.58
69402;BME280;56589;51.992;5.924;2023-05-22T07:21:44;100951.81;;;26.18;52.54
69402;BME280;56589;51.992;5.924;2023-05-22T07:24:09;100952.31;;;26.28;52.44
69402;BME280;56589;51.992;5.924;2023-05-22T07:26:35;100954.56;;;26.59;51.43
69402;BME280;56589;51.992;5.924;2023-05-22T07:29:04;100954.59;;;26.66;51.42
69402;BME280;56589;51.992;5.924;2023-05-22T07:31:31;100955.91;;;26.70;51.01
69402;BME280;56589;51.992;5.924;2023-05-22T07:33:56;100962.88;;;27.06;50.97
69402;BME280;56589;51.992;5.924;2023-05-22T07:36:22;100959.72;;;27.50;49.78
69402;BME280;56589;51.992;5.924;2023-05-22T07:38:48;100957.22;;;27.82;49.38
69402;BME280;56589;51.992;5.924;2023-05-22T07:41:14;100969.72;;;28.03;48.69
69402;BME280;56589;51.992;5.924;2023-05-22T07:43:39;100968.25;;;28.00;48.03
69402;BME280;56589;51.992;5.924;2023-05-22T07:46:09;100970.97;;;28.07;47.26
69402;BME280;56589;51.992;5.924;2023-05-22T07:48:35;100964.06;;;27.91;47.30
69402;BME280;56589;51.992;5.924;2023-05-22T07:51:01;100978.81;;;27.82;48.13
69402;BME280;56589;51.992;5.924;2023-05-22T07:53:27;100982.97;;;27.78;47.80
69402;BME280;56589;51.992;5.924;2023-05-22T07:55:53;100979.44;;;27.71;47.39
69402;BME280;56589;51.992;5.924;2023-05-22T07:58:19;100984.59;;;27.52;47.26
69402;BME280;56589;51.992;5.924;2023-05-22T08:00:45;100976.50;;;27.46;47.76
69402;BME280;56589;51.992;5.924;2023-05-22T08:03:13;100971.66;;;27.28;48.48
69402;BME280;56589;51.992;5.924;2023-05-22T08:05:39;100976.63;;;27.18;48.61
69402;BME280;56589;51.992;5.924;2023-05-22T08:08:05;100980.31;;;27.17;48.95
69402;BME280;56589;51.992;5.924;2023-05-22T08:10:31;100974.13;;;27.23;49.26
69402;BME280;56589;51.992;5.924;2023-05-22T08:12:57;100977.94;;;27.42;48.51
69402;BME280;56589;51.992;5.924;2023-05-22T08:15:23;100985.41;;;27.46;48.19
69402;BME280;56589;51.992;5.924;2023-05-22T08:17:49;100980.47;;;27.56;47.71
69402;BME280;56589;51.992;5.924;2023-05-22T08:20:17;100984.22;;;27.69;47.22
69402;BME280;56589;51.992;5.924;2023-05-22T08:22:43;100987.13;;;27.74;47.52
69402;BME280;56589;51.992;5.924;2023-05-22T08:25:09;100978.81;;;27.75;47.06
69402;BME280;56589;51.992;5.924;2023-05-22T08:27:35;100981.31;;;27.83;47.23
69402;BME280;56589;51.992;5.924;2023-05-22T08:30:01;100977.56;;;27.84;47.27
69402;BME280;56589;51.992;5.924;2023-05-22T08:32:26;100986.50;;;27.85;47.70
69402;BME280;56589;51.992;5.924;2023-05-22T08:34:52;100975.69;;;27.85;47.10
69402;BME280;56589;51.992;5.924;2023-05-22T08:37:21;100975.69;;;27.65;46.14
69402;BME280;56589;51.992;5.924;2023-05-22T08:39:46;100971.31;;;27.44;47.38
69402;BME280;56589;51.992;5.924;2023-05-22T08:42:12;100968.84;;;27.62;47.23
69402;BME280;56589;51.992;5.924;2023-05-22T08:44:38;100974.88;;;27.84;47.42
69402;BME280;56589;51.992;5.924;2023-05-22T08:47:06;100966.38;;;28.07;46.36
69402;BME280;56589;51.992;5.924;2023-05-22T08:49:33;100962.63;;;28.22;46.48
69402;BME280;56589;51.992;5.924;2023-05-22T08:52:02;100958.03;;;28.42;46.48
69402;BME280;56589;51.992;5.924;2023-05-22T08:54:40;100963.13;;;28.77;45.67
69402;BME280;56589;51.992;5.924;2023-05-22T08:57:07;100960.53;;;29.02;45.50
69402;BME280;56589;51.992;5.924;2023-05-22T08:59:34;100965.16;;;29.39;44.72
69402;BME280;56589;51.992;5.924;2023-05-22T09:02:03;100964.88;;;29.47;42.70
69402;BME280;56589;51.992;5.924;2023-05-22T09:04:30;100960.84;;;28.80;42.90
69402;BME280;56589;51.992;5.924;2023-05-22T09:06:56;100956.81;;;28.18;43.43
69402;BME280;56589;51.992;5.924;2023-05-22T09:09:22;100962.88;;;28.00;44.20
69402;BME280;56589;51.992;5.924;2023-05-22T09:11:53;100963.47;;;28.09;43.38
69402;BME280;56589;51.992;5.924;2023-05-22T09:14:19;100960.38;;;28.05;43.02
69402;BME280;56589;51.992;5.924;2023-05-22T09:16:45;100953.50;;;28.09;43.52
69402;BME280;56589;51.992;5.924;2023-05-22T09:19:13;100950.56;;;28.31;43.25
69402;BME280;56589;51.992;5.924;2023-05-22T09:21:39;100949.06;;;28.61;43.06
69402;BME280;56589;51.992;5.924;2023-05-22T09:24:07;100956.22;;;28.87;41.67
69402;BME280;56589;51.992;5.924;2023-05-22T09:26:33;100953.38;;;28.76;41.51
69402;BME280;56589;51.992;5.924;2023-05-22T09:29:02;100947.63;;;28.45;40.81
69402;BME280;56589;51.992;5.924;2023-05-22T09:31:29;100952.06;;;27.94;41.32
69402;BME280;56589;51.992;5.924;2023-05-22T09:33:56;100947.66;;;27.46;42.34
69402;BME280;56589;51.992;5.924;2023-05-22T09:36:29;100943.00;;;27.07;42.90
69402;BME280;56589;51.992;5.924;2023-05-22T09:38:55;100950.00;;;27.01;44.52
69402;BME280;56589;51.992;5.924;2023-05-22T09:41:24;100953.06;;;27.53;44.03
69402;BME280;56589;51.992;5.924;2023-05-22T09:43:49;100943.09;;;28.20;43.97
69402;BME280;56589;51.992;5.924;2023-05-22T09:46:18;100948.78;;;28.76;42.77
69402;BME280;56589;51.992;5.924;2023-05-22T09:48:50;100951.16;;;29.04;41.75
69402;BME280;56589;51.992;5.924;2023-05-22T09:51:16;100946.91;;;29.28;41.64
69402;BME280;56589;51.992;5.924;2023-05-22T09:53:45;100940.94;;;29.51;40.97
69402;BME280;56589;51.992;5.924;2023-05-22T09:56:14;100939.75;;;29.72;39.78
69402;BME280;56589;51.992;5.924;2023-05-22T09:58:43;100942.63;;;29.77;38.52
69402;BME280;56589;51.992;5.924;2023-05-22T10:01:10;100931.81;;;29.77;39.32
69402;BME280;56589;51.992;5.924;2023-05-22T10:03:39;100943.44;;;29.77;38.89
69402;BME280;56589;51.992;5.924;2023-05-22T10:06:07;100942.88;;;29.37;38.80
69402;BME280;56589;51.992;5.924;2023-05-22T10:08:40;100938.81;;;28.83;39.37
69402;BME280;56589;51.992;5.924;2023-05-22T10:11:12;100941.47;;;28.18;40.41
69402;BME280;56589;51.992;5.924;2023-05-22T10:13:40;100940.63;;;27.65;41.41
69402;BME280;56589;51.992;5.924;2023-05-22T10:16:07;100945.09;;;27.25;41.81
69402;BME280;56589;51.992;5.924;2023-05-22T10:18:35;100943.56;;;26.96;42.51
69402;BME280;56589;51.992;5.924;2023-05-22T10:21:05;100935.13;;;26.64;44.10
69402;BME280;56589;51.992;5.924;2023-05-22T10:23:31;100928.13;;;26.70;43.75
69402;BME280;56589;51.992;5.924;2023-05-22T10:25:57;100931.44;;;26.72;44.51
69402;BME280;56589;51.992;5.924;2023-05-22T10:28:26;100933.97;;;26.87;44.38
69402;BME280;56589;51.992;5.924;2023-05-22T10:31:00;100937.97;;;26.97;44.05
69402;BME280;56589;51.992;5.924;2023-05-22T10:33:40;100929.75;;;27.12;43.64
69402;BME280;56589;51.992;5.924;2023-05-22T10:36:12;100925.41;;;27.24;43.76
69402;BME280;56589;51.992;5.924;2023-05-22T10:39:03;100929.13;;;27.23;43.43
69402;BME280;56589;51.992;5.924;2023-05-22T10:41:40;100926.41;;;27.23;44.09
69402;BME280;56589;51.992;5.924;2023-05-22T10:44:06;100926.28;;;27.38;43.34
69402;BME280;56589;51.992;5.924;2023-05-22T10:46:32;100920.06;;;27.57;42.56
69402;BME280;56589;51.992;5.924;2023-05-22T10:49:01;100919.84;;;27.72;42.25
69402;BME280;56589;51.992;5.924;2023-05-22T10:51:27;100923.59;;;27.84;42.00
69402;BME280;56589;51.992;5.924;2023-05-22T10:53:57;100925.28;;;27.85;41.39
69402;BME280;56589;51.992;5.924;2023-05-22T10:56:31;100914.28;;;27.67;41.48
69402;BME280;56589;51.992;5.924;2023-05-22T10:59:00;100913.84;;;27.50;42.10
69402;BME280;56589;51.992;5.924;2023-05-22T11:01:27;100921.09;;;27.36;42.41
69402;BME280;56589;51.992;5.924;2023-05-22T11:03:55;100925.19;;;27.19;42.20
69402;BME280;56589;51.992;5.924;2023-05-22T11:06:35;100926.97;;;26.99;42.70
69402;BME280;56589;51.992;5.924;2023-05-22T11:09:18;100913.91;;;26.89;42.69
69402;BME280;56589;51.992;5.924;2023-05-22T11:11:46;100915.53;;;26.77;43.30
69402;BME280;56589;51.992;5.924;2023-05-22T11:14:15;100920.72;;;26.85;44.00
69402;BME280;56589;51.992;5.924;2023-05-22T11:16:41;100916.50;;;27.24;43.45
69402;BME280;56589;51.992;5.924;2023-05-22T11:19:08;100916.56;;;27.50;42.83
69402;BME280;56589;51.992;5.924;2023-05-22T11:21:41;100913.44;;;27.80;42.90
69402;BME280;56589;51.992;5.924;2023-05-22T11:24:08;100912.38;;;28.14;42.08
69402;BME280;56589;51.992;5.924;2023-05-22T11:26:34;100911.09;;;28.36;42.02
69402;BME280;56589;51.992;5.924;2023-05-22T11:29:00;100907.28;;;28.51;41.41
69402;BME280;56589;51.992;5.924;2023-05-22T11:31:28;100908.97;;;28.52;40.90
69402;BME280;56589;51.992;5.924;2023-05-22T11:33:54;100901.50;;;28.47;40.26
69402;BME280;56589;51.992;5.924;2023-05-22T11:36:21;100899.88;;;28.26;40.66
69402;BME280;56589;51.992;5.924;2023-05-22T11:38:56;100900.78;;;28.07;40.58
69402;BME280;56589;51.992;5.924;2023-05-22T11:41:22;100906.38;;;27.85;41.27
69402;BME280;56589;51.992;5.924;2023-05-22T11:43:48;100903.69;;;27.65;41.41
69402;BME280;56589;51.992;5.924;2023-05-22T11:46:14;100905.97;;;27.49;42.10
69402;BME280;56589;51.992;5.924;2023-05-22T11:48:40;100907.63;;;27.36;41.72
69402;BME280;56589;51.992;5.924;2023-05-22T11:51:07;100904.94;;;27.36;42.79
69402;BME280;56589;51.992;5.924;2023-05-22T11:53:33;100900.78;;;27.67;42.06
69402;BME280;56589;51.992;5.924;2023-05-22T11:56:05;100895.16;;;27.88;41.59
69402;BME280;56589;51.992;5.924;2023-05-22T11:58:31;100898.47;;;27.90;41.66
69402;BME280;56589;51.992;5.924;2023-05-22T12:01:01;100893.91;;;27.84;41.84
69402;BME280;56589;51.992;5.924;2023-05-22T12:03:28;100900.78;;;27.67;41.92
69402;BME280;56589;51.992;5.924;2023-05-22T12:05:54;100907.41;;;27.45;43.39
69402;BME280;56589;51.992;5.924;2023-05-22T12:08:21;100914.63;;;27.24;43.65
69402;BME280;56589;51.992;5.924;2023-05-22T12:10:49;100906.66;;;26.96;44.00
69402;BME280;56589;51.992;5.924;2023-05-22T12:13:24;100906.88;;;26.53;46.45
69402;BME280;56589;51.992;5.924;2023-05-22T12:15:53;100896.81;;;26.27;47.83
69402;BME280;56589;51.992;5.924;2023-05-22T12:18:19;100892.03;;;26.23;47.43
69402;BME280;56589;51.992;5.924;2023-05-22T12:20:45;100893.16;;;26.42;47.37
69402;BME280;56589;51.992;5.924;2023-05-22T12:23:11;100896.97;;;26.61;46.58
69402;BME280;56589;51.992;5.924;2023-05-22T12:25:44;100896.03;;;26.75;46.31
69402;BME280;56589;51.992;5.924;2023-05-22T12:28:10;100893.56;;;26.87;47.22
69402;BME280;56589;51.992;5.924;2023-05-22T12:30:41;100900.25;;;26.97;45.93
69402;BME280;56589;51.992;5.924;2023-05-22T12:33:13;100898.97;;;26.87;45.84
69402;BME280;56589;51.992;5.924;2023-05-22T12:35:40;100892.66;;;26.66;46.60
69402;BME280;56589;51.992;5.924;2023-05-22T12:38:06;100894.28;;;26.61;46.44
69402;BME280;56589;51.992;5.924;2023-05-22T12:40:32;100892.41;;;26.61;45.92
69402;BME280;56589;51.992;5.924;2023-05-22T12:42:58;100885.38;;;26.60;46.38
69402;BME280;56589;51.992;5.924;2023-05-22T12:45:24;100886.22;;;26.67;46.82
69402;BME280;56589;51.992;5.924;2023-05-22T12:47:52;100892.56;;;26.94;46.21
69402;BME280;56589;51.992;5.924;2023-05-22T12:50:18;100882.22;;;27.11;45.40
69402;BME280;56589;51.992;5.924;2023-05-22T12:52:44;100883.72;;;27.20;45.49
69402;BME280;56589;51.992;5.924;2023-05-22T12:55:10;100884.75;;;27.19;44.80
69402;BME280;56589;51.992;5.924;2023-05-22T12:57:35;100874.34;;;27.09;44.88